Lamont, Washington
Current Conditions -  °F | °C
As of 11:58 PM on Saturday 20 Dec 2014 (Local Time) from KSKA Reporting Station
Drizzle Drizzle  
Wind Chill: 38°   Ceiling: 300
Heat Index: 44°   Visibility: 10mi
Dew Point: 44°   Wind: 15mph
Humidity: 100%   Direction: 190°S
Pressure: 29.45"   Gusts: 25mph
Location:  47.2°N, 117.91°W
Report Text: KSKA 210758Z AUTO 19013G22KT 10SM -DZ OVC003 07/07 A2945 RMK AO2 DZE13RAB13E54DZB54 SLP983 P0001 T00690069
Loading
Personal Weather Stations






























Interactive Weather Map New forecast layout! Learn more

10-Day Weather Forecast

Advertisements
Track Severe Weather on mobile